Time;durP1;ratioP1;P1;durP2;ratioP2;P2;SDS_P1;SDS_P2;PMS_P1;PMS_P2;Temp;Humidity;BMP_temperature;BMP_pressure;BME280_temperature;BME280_humidity;BME280_pressure;Samples;Min_cycle;Max_cycle;Signal;HPM_P1;HPM_P2
2022/03/02 00:01:01;;;;;;;;;;;;;;;;;;4915548;29;20272;-82
2022/03/02 00:03:27;;;;;;;;;;;;;;;;;;4898086;29;19919;-83
2022/03/02 00:05:53;;;;;;;;;;;;;;;;;;4915759;29;19919;-82
2022/03/02 00:08:20;;;;;;;;;;;;;;;;;;4916318;29;20381;-83
2022/03/02 00:10:46;;;;;;;;;;;;;;;;;;4916290;29;20275;-83
2022/03/02 00:13:11;;;;;;;;;;;;;;;;;;4915948;29;19918;-83
2022/03/02 00:15:37;;;;;;;;;;;;;;;;;;4916206;29;20005;-82
2022/03/02 00:18:03;;;;;;;;;;;;;;;;;;4916158;29;19958;-83
2022/03/02 00:20:29;;;;;;;;;;;;;;;;;;4916366;29;20002;-83
2022/03/02 00:22:55;;;;;;;;;;;;;;;;;;4915478;29;20303;-82
2022/03/02 00:25:21;;;;;;;;;;;;;;;;;;4916070;29;19971;-82
2022/03/02 00:27:47;;;;;;;;;;;;;;;;;;4916015;29;20340;-83
2022/03/02 00:30:13;;;;;;;;;;;;;;;;;;4916345;29;19922;-83
2022/03/02 00:32:40;;;;;;;;;;;;;;;;;;4915595;29;19922;-82
2022/03/02 00:35:06;;;;;;;;;;;;;;;;;;4898965;29;19957;-82
2022/03/02 00:37:31;;;;;;;;;;;;;;;;;;4912687;29;19974;-83
2022/03/02 00:39:57;;;;;;;;;;;;;;;;;;4897012;29;19955;-82
2022/03/02 00:42:23;;;;;;;;;;;;;;;;;;4897023;29;19936;-82
2022/03/02 00:44:49;;;;;;;;;;;;;;;;;;4897528;29;19966;-82
2022/03/02 00:47:15;;;;;;;;;;;;;;;;;;4905390;29;19931;-82
2022/03/02 00:49:41;;;;;;;;;;;;;;;;;;4919279;29;19915;-82
2022/03/02 00:52:10;;;;;;;;;;;;;;;;;;4918918;29;20307;-82
2022/03/02 00:54:36;;;;;;;;;;;;;;;;;;4919158;29;20394;-82
2022/03/02 00:57:02;;;;;;;;;;;;;;;;;;4919695;29;19915;-82
2022/03/02 00:59:27;;;;;;;;;;;;;;;;;;4917968;29;19930;-83
2022/03/02 01:01:53;;;;;;;;;;;;;;;;;;4911507;29;19915;-82
2022/03/02 01:04:19;;;;;;;;;;;;;;;;;;4910147;29;20320;-83
2022/03/02 01:06:45;;;;;;;;;;;;;;;;;;4918966;29;19915;-83
2022/03/02 01:09:11;;;;;;;;;;;;;;;;;;4919399;29;19912;-83
2022/03/02 01:11:37;;;;;;;;;;;;;;;;;;4919411;29;20275;-82
2022/03/02 01:14:03;;;;;;;;;;;;;;;;;;4918587;29;19993;-82
2022/03/02 01:16:29;;;;;;;;;;;;;;;;;;4902276;29;20002;-83
2022/03/02 01:18:55;;;;;;;;;;;;;;;;;;4919482;29;19911;-83
2022/03/02 01:21:21;;;;;;;;;;;;;;;;;;4918686;29;19911;-83
2022/03/02 01:23:46;;;;;;;;;;;;;;;;;;4901889;29;19915;-83
2022/03/02 01:26:12;;;;;;;;;;;;;;;;;;4919214;29;19911;-83
2022/03/02 01:28:38;;;;;;;;;;;;;;;;;;4918864;29;19915;-82
2022/03/02 01:31:04;;;;;;;;;;;;;;;;;;4918680;29;20046;-83
2022/03/02 01:33:30;;;;;;;;;;;;;;;;;;4918909;29;19915;-82
2022/03/02 01:35:56;;;;;;;;;;;;;;;;;;4918473;29;20010;-82
2022/03/02 01:38:22;;;;;;;;;;;;;;;;;;4918995;29;19911;-82
2022/03/02 01:40:48;;;;;;;;;;;;;;;;;;4918635;29;19908;-82
2022/03/02 01:43:14;;;;;;;;;;;;;;;;;;4909566;29;20387;-83
2022/03/02 01:45:40;;;;;;;;;;;;;;;;;;4918571;29;19911;-82
2022/03/02 01:48:06;;;;;;;;;;;;;;;;;;4918349;29;19911;-82
2022/03/02 01:50:32;;;;;;;;;;;;;;;;;;4918133;29;20283;-83
2022/03/02 01:52:58;;;;;;;;;;;;;;;;;;4918370;29;19911;-83
2022/03/02 01:55:24;;;;;;;;;;;;;;;;;;4918661;29;19915;-83
2022/03/02 01:57:50;;;;;;;;;;;;;;;;;;4916831;29;20415;-82
2022/03/02 02:00:15;;;;;;;;;;;;;;;;;;4918214;29;19967;-82
2022/03/02 02:02:41;;;;;;;;;;;;;;;;;;4918152;29;19923;-83
2022/03/02 02:05:07;;;;;;;;;;;;;;;;;;4917809;29;19915;-83
2022/03/02 02:07:33;;;;;;;;;;;;;;;;;;4918374;29;20486;-83
2022/03/02 02:09:59;;;;;;;;;;;;;;;;;;4918000;29;19918;-82
2022/03/02 02:12:25;;;;;;;;;;;;;;;;;;4918157;29;19958;-82
2022/03/02 02:14:51;;;;;;;;;;;;;;;;;;4918114;29;19912;-82
2022/03/02 02:17:17;;;;;;;;;;;;;;;;;;4906595;29;20372;-82
2022/03/02 02:19:43;;;;;;;;;;;;;;;;;;4911016;29;19918;-82
2022/03/02 02:22:09;;;;;;;;;;;;;;;;;;4917689;29;19922;-83
2022/03/02 02:24:34;;;;;;;;;;;;;;;;;;4909721;29;20388;-82
2022/03/02 02:27:00;;;;;;;;;;;;;;;;;;4898926;29;19912;-82
2022/03/02 02:29:26;;;;;;;;;;;;;;;;;;4898963;29;19918;-82
2022/03/02 02:31:52;;;;;;;;;;;;;;;;;;4903865;29;19998;-82
2022/03/02 02:34:18;;;;;;;;;;;;;;;;;;4900865;29;19911;-82
2022/03/02 02:36:44;;;;;;;;;;;;;;;;;;4917514;29;20397;-82
2022/03/02 02:39:10;;;;;;;;;;;;;;;;;;4917323;29;19962;-82
2022/03/02 02:41:36;;;;;;;;;;;;;;;;;;4917586;29;19911;-82
2022/03/02 02:44:02;;;;;;;;;;;;;;;;;;4917429;29;19958;-82
2022/03/02 02:46:28;;;;;;;;;;;;;;;;;;4916965;29;20377;-82
2022/03/02 02:48:53;;;;;;;;;;;;;;;;;;4895714;29;19915;-82
2022/03/02 02:51:19;;;;;;;;;;;;;;;;;;4914495;29;19955;-82
2022/03/02 02:53:45;;;;;;;;;;;;;;;;;;4917076;29;20015;-82
2022/03/02 02:56:12;;;;;;;;;;;;;;;;;;4917449;29;20379;-82
2022/03/02 02:58:38;;;;;;;;;;;;;;;;;;4900454;29;19945;-82
2022/03/02 03:01:04;;;;;;;;;;;;;;;;;;4917477;29;19918;-82
2022/03/02 03:03:30;;;;;;;;;;;;;;;;;;4916994;29;19970;-82
2022/03/02 03:05:56;;;;;;;;;;;;;;;;;;4917163;29;19915;-82
2022/03/02 03:08:22;;;;;;;;;;;;;;;;;;4900673;29;19916;-83
2022/03/02 03:10:48;;;;;;;;;;;;;;;;;;4881317;29;20401;-82
2022/03/02 03:13:14;;;;;;;;;;;;;;;;;;4898093;29;19990;-82
2022/03/02 03:15:40;;;;;;;;;;;;;;;;;;4897803;29;19943;-82
2022/03/02 03:18:06;;;;;;;;;;;;;;;;;;4898515;29;20003;-82
2022/03/02 03:20:32;;;;;;;;;;;;;;;;;;4905472;29;19915;-83
2022/03/02 03:22:58;;;;;;;;;;;;;;;;;;4917072;29;20295;-83
2022/03/02 03:25:24;;;;;;;;;;;;;;;;;;4916953;29;20378;-83
2022/03/02 03:27:50;;;;;;;;;;;;;;;;;;4916942;29;19908;-83
2022/03/02 03:30:16;;;;;;;;;;;;;;;;;;4916248;29;19911;-83
2022/03/02 03:32:42;;;;;;;;;;;;;;;;;;4916770;29;19915;-83
2022/03/02 03:35:08;;;;;;;;;;;;;;;;;;4915910;29;20399;-83
2022/03/02 03:37:33;;;;;;;;;;;;;;;;;;4916374;29;19911;-83
2022/03/02 03:39:59;;;;;;;;;;;;;;;;;;4917043;29;19911;-83
2022/03/02 03:42:25;;;;;;;;;;;;;;;;;;4916299;29;19916;-83
2022/03/02 03:44:51;;;;;;;;;;;;;;;;;;4916501;29;19918;-83
2022/03/02 03:47:17;;;;;;;;;;;;;;;;;;4916091;29;19923;-83
2022/03/02 03:49:43;;;;;;;;;;;;;;;;;;4915794;29;19915;-83
2022/03/02 03:52:09;;;;;;;;;;;;;;;;;;4916649;29;20375;-83
2022/03/02 03:54:35;;;;;;;;;;;;;;;;;;4916406;29;19918;-82
2022/03/02 03:57:01;;;;;;;;;;;;;;;;;;4899561;29;19912;-82
2022/03/02 03:59:26;;;;;;;;;;;;;;;;;;4914005;29;19923;-82
2022/03/02 04:01:52;;;;;;;;;;;;;;;;;;4916317;29;19952;-82
2022/03/02 04:04:19;;;;;;;;;;;;;;;;;;4916145;29;20377;-83
2022/03/02 04:06:45;;;;;;;;;;;;;;;;;;4916203;29;20372;-83
2022/03/02 04:09:11;;;;;;;;;;;;;;;;;;4899117;29;19927;-83
2022/03/02 04:11:37;;;;;;;;;;;;;;;;;;4915732;29;19915;-83
2022/03/02 04:14:03;;;;;;;;;;;;;;;;;;4898592;29;19919;-83
2022/03/02 04:16:28;;;;;;;;;;;;;;;;;;4914010;29;19970;-83
2022/03/02 04:18:54;;;;;;;;;;;;;;;;;;4916224;29;19911;-82
2022/03/02 04:21:20;;;;;;;;;;;;;;;;;;4915855;29;19907;-82
2022/03/02 04:23:46;;;;;;;;;;;;;;;;;;4915764;29;19955;-82
2022/03/02 04:26:12;;;;;;;;;;;;;;;;;;4916493;29;19919;-83
2022/03/02 04:28:38;;;;;;;;;;;;;;;;;;4915275;29;19959;-83
2022/03/02 04:31:04;;;;;;;;;;;;;;;;;;4915998;29;19963;-82
2022/03/02 04:33:30;;;;;;;;;;;;;;;;;;4915727;29;19937;-82
2022/03/02 04:35:56;;;;;;;;;;;;;;;;;;4898894;29;19918;-82
2022/03/02 04:38:22;;;;;;;;;;;;;;;;;;4916053;29;19934;-82
2022/03/02 04:40:48;;;;;;;;;;;;;;;;;;4916338;29;20376;-82
2022/03/02 04:43:14;;;;;;;;;;;;;;;;;;4915694;29;19926;-83
2022/03/02 04:45:40;;;;;;;;;;;;;;;;;;4914543;29;19916;-82
2022/03/02 04:48:08;;;;;;;;;;;;;;;;;;4915814;29;19918;-82
2022/03/02 04:50:34;;;;;;;;;;;;;;;;;;4915421;29;19925;-83
2022/03/02 04:53:00;;;;;;;;;;;;;;;;;;4898964;29;19958;-83
2022/03/02 04:55:26;;;;;;;;;;;;;;;;;;4916035;29;20302;-83
2022/03/02 04:57:52;;;;;;;;;;;;;;;;;;4915491;29;20014;-82
2022/03/02 05:00:18;;;;;;;;;;;;;;;;;;4900268;29;20018;-82
2022/03/02 05:02:44;;;;;;;;;;;;;;;;;;4908303;29;19930;-82
2022/03/02 05:05:11;;;;;;;;;;;;;;;;;;4903505;29;19918;-81
2022/03/02 05:07:37;;;;;;;;;;;;;;;;;;4896957;29;19912;-82
2022/03/02 05:10:03;;;;;;;;;;;;;;;;;;4898698;29;20388;-82
2022/03/02 05:12:29;;;;;;;;;;;;;;;;;;4903620;29;19915;-82
2022/03/02 05:14:55;;;;;;;;;;;;;;;;;;4912409;29;19915;-80
2022/03/02 05:17:21;;;;;;;;;;;;;;;;;;4908136;29;20394;-79
2022/03/02 05:19:47;;;;;;;;;;;;;;;;;;4915280;29;19911;-81
2022/03/02 05:22:12;;;;;;;;;;;;;;;;;;4915950;29;19919;-79
2022/03/02 05:24:38;;;;;;;;;;;;;;;;;;4913543;29;20358;-80
2022/03/02 05:27:05;;;;;;;;;;;;;;;;;;4898809;29;20371;-81
2022/03/02 05:29:31;;;;;;;;;;;;;;;;;;4898871;29;19915;-81
2022/03/02 05:31:56;;;;;;;;;;;;;;;;;;4916396;29;19934;-81
2022/03/02 05:34:22;;;;;;;;;;;;;;;;;;4919168;29;19907;-78
2022/03/02 05:36:48;;;;;;;;;;;;;;;;;;4903254;29;19928;-79
2022/03/02 05:39:14;;;;;;;;;;;;;;;;;;4899639;29;19923;-80
2022/03/02 05:41:40;;;;;;;;;;;;;;;;;;4914970;29;19940;-80
2022/03/02 05:44:07;;;;;;;;;;;;;;;;;;4918913;29;19915;-81
2022/03/02 05:46:33;;;;;;;;;;;;;;;;;;4918364;29;19962;-80
2022/03/02 05:48:59;;;;;;;;;;;;;;;;;;4918425;29;19958;-81
2022/03/02 05:51:25;;;;;;;;;;;;;;;;;;4918589;29;19994;-81
2022/03/02 05:53:51;;;;;;;;;;;;;;;;;;4917284;29;19916;-81
2022/03/02 05:56:17;;;;;;;;;;;;;;;;;;4901439;29;20367;-80
2022/03/02 05:58:43;;;;;;;;;;;;;;;;;;4918737;29;19911;-80
2022/03/02 06:01:09;;;;;;;;;;;;;;;;;;4918078;29;19911;-80
2022/03/02 06:03:35;;;;;;;;;;;;;;;;;;4918486;29;20303;-80
2022/03/02 06:06:01;;;;;;;;;;;;;;;;;;4918614;29;19922;-81
2022/03/02 06:08:27;;;;;;;;;;;;;;;;;;4918451;29;20384;-81
2022/03/02 06:10:53;;;;;;;;;;;;;;;;;;4918079;29;20001;-80
2022/03/02 06:13:19;;;;;;;;;;;;;;;;;;4917972;29;19921;-80
2022/03/02 06:15:45;;;;;;;;;;;;;;;;;;4918256;29;20275;-80
2022/03/02 06:18:10;;;;;;;;;;;;;;;;;;4918453;29;19958;-81
2022/03/02 06:20:36;;;;;;;;;;;;;;;;;;4917777;29;20444;-81
2022/03/02 06:23:02;;;;;;;;;;;;;;;;;;4918101;29;19915;-81
2022/03/02 06:25:28;;;;;;;;;;;;;;;;;;4917930;29;19954;-80
2022/03/02 06:27:54;;;;;;;;;;;;;;;;;;4899452;29;20423;-80
2022/03/02 06:30:20;;;;;;;;;;;;;;;;;;4899354;29;19908;-80
2022/03/02 06:32:46;;;;;;;;;;;;;;;;;;4898892;29;19908;-80
2022/03/02 06:35:12;;;;;;;;;;;;;;;;;;4899339;29;19939;-80
2022/03/02 06:37:38;;;;;;;;;;;;;;;;;;4905228;29;19915;-80
2022/03/02 06:40:04;;;;;;;;;;;;;;;;;;4917330;29;20403;-80
2022/03/02 06:42:30;;;;;;;;;;;;;;;;;;4917883;29;19915;-81
2022/03/02 06:44:56;;;;;;;;;;;;;;;;;;4917348;29;20609;-80
2022/03/02 06:47:21;;;;;;;;;;;;;;;;;;4917268;29;20021;-80
2022/03/02 06:49:47;;;;;;;;;;;;;;;;;;4917462;29;19915;-81
2022/03/02 06:52:13;;;;;;;;;;;;;;;;;;4916727;29;19922;-81
2022/03/02 06:54:39;;;;;;;;;;;;;;;;;;4916522;29;19911;-80
2022/03/02 06:57:06;;;;;;;;;;;;;;;;;;4917543;29;19912;-80
2022/03/02 06:59:32;;;;;;;;;;;;;;;;;;4917630;29;19993;-80
2022/03/02 07:01:58;;;;;;;;;;;;;;;;;;4917059;29;19943;-80
2022/03/02 07:04:24;;;;;;;;;;;;;;;;;;4915331;29;20332;-80
2022/03/02 07:06:49;;;;;;;;;;;;;;;;;;4916891;29;20378;-81
2022/03/02 07:09:15;;;;;;;;;;;;;;;;;;4917104;29;19966;-80
2022/03/02 07:11:42;;;;;;;;;;;;;;;;;;4913755;29;19963;-81
2022/03/02 07:14:08;;;;;;;;;;;;;;;;;;4916995;29;19918;-80
2022/03/02 07:16:34;;;;;;;;;;;;;;;;;;4917271;29;19915;-81
2022/03/02 07:19:00;;;;;;;;;;;;;;;;;;4917154;29;19967;-81
2022/03/02 07:21:28;;;;;;;;;;;;;;;;;;4917442;29;20019;-81
2022/03/02 07:23:56;;;;;;;;;;;;;;;;;;4916566;29;19921;-80
2022/03/02 07:26:23;;;;;;;;;;;;;;;;;;4917099;29;19926;-80
2022/03/02 07:28:48;;;;;;;;;;;;;;;;;;4916801;29;19990;-81
2022/03/02 07:31:14;;;;;;;;;;;;;;;;;;4916994;29;20006;-80
2022/03/02 07:33:42;;;;;;;;;;;;;;;;;;4917302;29;20454;-81
2022/03/02 07:36:08;;;;;;;;;;;;;;;;;;4917033;29;19907;-80
2022/03/02 07:38:34;;;;;;;;;;;;;;;;;;4916263;29;19965;-80
2022/03/02 07:41:00;;;;;;;;;;;;;;;;;;4916571;29;20387;-81
2022/03/02 07:43:25;;;;;;;;;;;;;;;;;;4916694;29;20062;-81
2022/03/02 07:45:51;;;;;;;;;;;;;;;;;;4916452;29;19958;-80
2022/03/02 07:48:17;;;;;;;;;;;;;;;;;;4916764;29;20402;-80
2022/03/02 07:50:43;;;;;;;;;;;;;;;;;;4916764;29;19915;-80
2022/03/02 07:53:09;;;;;;;;;;;;;;;;;;4898969;29;19911;-81
2022/03/02 07:55:37;;;;;;;;;;;;;;;;;;4911899;29;19916;-80
2022/03/02 07:58:03;;;;;;;;;;;;;;;;;;4905494;29;19967;-79
2022/03/02 08:00:29;;;;;;;;;;;;;;;;;;4910266;29;19911;-79
2022/03/02 08:02:55;;;;;;;;;;;;;;;;;;4913001;29;20368;-80
2022/03/02 08:05:20;;;;;;;;;;;;;;;;;;4905182;29;20005;-79
2022/03/02 08:07:48;;;;;;;;;;;;;;;;;;4914974;29;19918;-80
2022/03/02 08:10:15;;;;;;;;;;;;;;;;;;4908114;29;19912;-80
2022/03/02 08:12:42;;;;;;;;;;;;;;;;;;4905907;29;19919;-80
2022/03/02 08:15:08;;;;;;;;;;;;;;;;;;4890923;29;19978;-80
2022/03/02 08:17:34;;;;;;;;;;;;;;;;;;4900968;29;20002;-80
2022/03/02 08:20:00;;;;;;;;;;;;;;;;;;4905137;29;20383;-77
2022/03/02 08:22:27;;;;;;;;;;;;;;;;;;4899466;29;19926;-80
2022/03/02 08:24:53;;;;;;;;;;;;;;;;;;4904800;29;19955;-81
2022/03/02 08:27:19;;;;;;;;;;;;;;;;;;4906014;29;20022;-81
2022/03/02 08:29:45;;;;;;;;;;;;;;;;;;4904919;29;20055;-81
2022/03/02 08:32:10;;;;;;;;;;;;;;;;;;4910384;29;20371;-81
2022/03/02 08:34:36;;;;;;;;;;;;;;;;;;4906240;29;19915;-80
2022/03/02 08:37:02;;;;;;;;;;;;;;;;;;4906311;29;19983;-80
2022/03/02 08:39:28;;;;;;;;;;;;;;;;;;4907249;29;19947;-81
2022/03/02 08:41:54;;;;;;;;;;;;;;;;;;4910467;29;19915;-81
2022/03/02 08:44:20;;;;;;;;;;;;;;;;;;4907101;29;19915;-81
2022/03/02 08:46:46;;;;;;;;;;;;;;;;;;4915640;29;19950;-81
2022/03/02 08:49:12;;;;;;;;;;;;;;;;;;4899427;29;19923;-81
2022/03/02 08:51:39;;;;;;;;;;;;;;;;;;4914782;29;20336;-81
2022/03/02 08:54:05;;;;;;;;;;;;;;;;;;4911741;29;20406;-81
2022/03/02 08:56:32;;;;;;;;;;;;;;;;;;4889228;29;20375;-81
2022/03/02 08:58:58;;;;;;;;;;;;;;;;;;4909900;29;19980;-83
2022/03/02 09:01:24;;;;;;;;;;;;;;;;;;4915372;29;19919;-81
2022/03/02 09:03:53;;;;;;;;;;;;;;;;;;4909811;29;19919;-81
2022/03/02 09:06:19;;;;;;;;;;;;;;;;;;4909183;29;19946;-81
2022/03/02 09:08:44;;;;;;;;;;;;;;;;;;4905017;29;19954;-81
2022/03/02 09:11:10;;;;;;;;;;;;;;;;;;4919403;29;19911;-79
2022/03/02 09:13:37;;;;;;;;;;;;;;;;;;4916734;29;20047;-81
2022/03/02 09:16:03;;;;;;;;;;;;;;;;;;4919215;29;20051;-80
2022/03/02 09:18:29;;;;;;;;;;;;;;;;;;4909652;29;20460;-79
2022/03/02 09:20:56;;;;;;;;;;;;;;;;;;4911126;29;19933;-81
2022/03/02 09:23:21;;;;;;;;;;;;;;;;;;4918610;29;19923;-81
2022/03/02 09:25:47;;;;;;;;;;;;;;;;;;4918651;29;20467;-83
2022/03/02 09:28:14;;;;;;;;;;;;;;;;;;4914890;29;19926;-80
2022/03/02 09:30:40;;;;;;;;;;;;;;;;;;4901146;29;19911;-81
2022/03/02 09:33:06;;;;;;;;;;;;;;;;;;4918296;29;19919;-82
2022/03/02 09:35:32;;;;;;;;;;;;;;;;;;4898094;29;19942;-81
2022/03/02 09:37:58;;;;;;;;;;;;;;;;;;4913693;29;20264;-81
2022/03/02 09:40:24;;;;;;;;;;;;;;;;;;4918392;29;19919;-81
2022/03/02 09:42:49;;;;;;;;;;;;;;;;;;4916621;29;19919;-82
2022/03/02 09:45:15;;;;;;;;;;;;;;;;;;4909535;29;20264;-81
2022/03/02 09:47:42;;;;;;;;;;;;;;;;;;4914229;29;20455;-81
2022/03/02 09:50:08;;;;;;;;;;;;;;;;;;4915862;29;19919;-81
2022/03/02 09:52:34;;;;;;;;;;;;;;;;;;4918501;29;20009;-82
2022/03/02 09:55:00;;;;;;;;;;;;;;;;;;4916867;29;19915;-81
2022/03/02 09:57:27;;;;;;;;;;;;;;;;;;4913429;29;19927;-82
2022/03/02 09:59:53;;;;;;;;;;;;;;;;;;4906943;29;19916;-81
2022/03/02 10:02:20;;;;;;;;;;;;;;;;;;4913835;29;20009;-81
2022/03/02 10:04:46;;;;;;;;;;;;;;;;;;4900025;29;20384;-81
2022/03/02 10:07:27;;;;;;;;;;;;;;;;;;4899253;29;19919;-81
2022/03/02 10:09:53;;;;;;;;;;;;;;;;;;4899445;29;19923;-81
2022/03/02 10:12:19;;;;;;;;;;;;;;;;;;4899315;29;20299;-81
2022/03/02 10:14:45;;;;;;;;;;;;;;;;;;4899451;29;20300;-81
2022/03/02 10:17:11;;;;;;;;;;;;;;;;;;4901969;29;19922;-82
2022/03/02 10:19:37;;;;;;;;;;;;;;;;;;4917527;29;19915;-80
2022/03/02 10:22:03;;;;;;;;;;;;;;;;;;4917177;29;20332;-82
2022/03/02 10:24:29;;;;;;;;;;;;;;;;;;4900870;29;20661;-81
2022/03/02 10:26:55;;;;;;;;;;;;;;;;;;4918614;29;20014;-81
2022/03/02 10:29:21;;;;;;;;;;;;;;;;;;4918400;29;19915;-81
2022/03/02 10:31:47;;;;;;;;;;;;;;;;;;4899719;29;20403;-81
2022/03/02 10:34:13;;;;;;;;;;;;;;;;;;4917564;29;19928;-81
2022/03/02 10:36:39;;;;;;;;;;;;;;;;;;4917135;29;19915;-80
2022/03/02 10:39:05;;;;;;;;;;;;;;;;;;4917888;29;19918;-81
2022/03/02 10:41:31;;;;;;;;;;;;;;;;;;4917116;29;19922;-81
2022/03/02 10:43:57;;;;;;;;;;;;;;;;;;4912784;29;20303;-80
2022/03/02 10:46:22;;;;;;;;;;;;;;;;;;4909919;29;19923;-81
2022/03/02 10:48:48;;;;;;;;;;;;;;;;;;4917604;29;19918;-81
2022/03/02 10:51:15;;;;;;;;;;;;;;;;;;4917443;29;20375;-80
2022/03/02 10:53:41;;;;;;;;;;;;;;;;;;4918089;29;19927;-76
2022/03/02 10:56:08;;;;;;;;;;;;;;;;;;4917495;29;19907;-79
2022/03/02 10:58:34;;;;;;;;;;;;;;;;;;4916923;29;19919;-79
2022/03/02 11:01:00;;;;;;;;;;;;;;;;;;4895299;29;19916;-80
2022/03/02 11:03:25;;;;;;;;;;;;;;;;;;4910613;29;19919;-80
2022/03/02 11:05:51;;;;;;;;;;;;;;;;;;4909638;29;19911;-78
2022/03/02 11:08:17;;;;;;;;;;;;;;;;;;4917726;29;20329;-80
2022/03/02 11:10:43;;;;;;;;;;;;;;;;;;4909012;29;19912;-82
2022/03/02 11:13:13;;;;;;;;;;;;;;;;;;4917062;29;19915;-79
2022/03/02 11:15:39;;;;;;;;;;;;;;;;;;4890669;29;19987;-82
2022/03/02 11:18:05;;;;;;;;;;;;;;;;;;4909342;29;20368;-81
2022/03/02 11:20:31;;;;;;;;;;;;;;;;;;4917013;29;19911;-81
2022/03/02 11:22:57;;;;;;;;;;;;;;;;;;4904425;29;19927;-73
2022/03/02 11:25:25;;;;;;;;;;;;;;;;;;4910423;29;20588;-81
2022/03/02 11:27:51;;;;;;;;;;;;;;;;;;4907369;29;20380;-81
2022/03/02 11:30:17;;;;;;;;;;;;;;;;;;4887344;29;19911;-80
2022/03/02 11:32:43;;;;;;;;;;;;;;;;;;4907234;29;19923;-81
2022/03/02 11:35:09;;;;;;;;;;;;;;;;;;4905192;29;19912;-79
2022/03/02 11:37:35;;;;;;;;;;;;;;;;;;4912996;29;20410;-79
2022/03/02 11:40:01;;;;;;;;;;;;;;;;;;4908896;29;19917;-81
2022/03/02 11:42:27;;;;;;;;;;;;;;;;;;4915291;29;19919;-80
2022/03/02 11:44:53;;;;;;;;;;;;;;;;;;4904758;29;19915;-81
2022/03/02 11:47:20;;;;;;;;;;;;;;;;;;4898327;29;19924;-80
2022/03/02 11:49:46;;;;;;;;;;;;;;;;;;4896371;29;19911;-80
2022/03/02 11:52:12;;;;;;;;;;;;;;;;;;4908647;29;20022;-80
2022/03/02 11:54:38;;;;;;;;;;;;;;;;;;4907247;29;20336;-81
2022/03/02 11:57:04;;;;;;;;;;;;;;;;;;4909233;29;20010;-80
2022/03/02 11:59:30;;;;;;;;;;;;;;;;;;4904841;29;19999;-79
2022/03/02 12:01:56;;;;;;;;;;;;;;;;;;4901892;29;19919;-80
2022/03/02 12:04:22;;;;;;;;;;;;;;;;;;4901990;29;19922;-76
2022/03/02 12:06:50;;;;;;;;;;;;;;;;;;4907449;29;20320;-80
2022/03/02 12:09:16;;;;;;;;;;;;;;;;;;4887422;29;19990;-80
2022/03/02 12:11:42;;;;;;;;;;;;;;;;;;4906748;29;20105;-80
2022/03/02 12:14:08;;;;;;;;;;;;;;;;;;4911711;29;19938;-79
2022/03/02 12:16:34;;;;;;;;;;;;;;;;;;4916304;29;19915;-79
2022/03/02 12:19:00;;;;;;;;;;;;;;;;;;4916675;29;19917;-80
2022/03/02 12:21:26;;;;;;;;;;;;;;;;;;4910007;29;19912;-81
2022/03/02 12:23:52;;;;;;;;;;;;;;;;;;4906023;29;20431;-80
2022/03/02 12:26:18;;;;;;;;;;;;;;;;;;4886061;29;19962;-80
2022/03/02 12:28:44;;;;;;;;;;;;;;;;;;4908485;29;19998;-80
2022/03/02 12:31:10;;;;;;;;;;;;;;;;;;4904372;29;20291;-79
2022/03/02 12:33:36;;;;;;;;;;;;;;;;;;4893880;29;19996;-79
2022/03/02 12:36:06;;;;;;;;;;;;;;;;;;4909728;29;19915;-79
2022/03/02 12:38:32;;;;;;;;;;;;;;;;;;4912455;29;19915;-79
2022/03/02 12:40:58;;;;;;;;;;;;;;;;;;4908189;29;19916;-79
2022/03/02 12:43:26;;;;;;;;;;;;;;;;;;4919734;29;19919;-79
2022/03/02 12:45:52;;;;;;;;;;;;;;;;;;4916865;29;19911;-79
2022/03/02 12:48:18;;;;;;;;;;;;;;;;;;4913792;29;19926;-79
2022/03/02 12:50:44;;;;;;;;;;;;;;;;;;4910530;29;20006;-80
2022/03/02 12:53:10;;;;;;;;;;;;;;;;;;4918098;29;20377;-79
2022/03/02 12:55:36;;;;;;;;;;;;;;;;;;4909663;29;19912;-79
2022/03/02 12:58:02;;;;;;;;;;;;;;;;;;4914974;29;19917;-79
2022/03/02 13:00:28;;;;;;;;;;;;;;;;;;4911961;29;20470;-79
2022/03/02 13:02:54;;;;;;;;;;;;;;;;;;4910643;29;19926;-79
2022/03/02 13:05:20;;;;;;;;;;;;;;;;;;4901214;29;19912;-79
2022/03/02 13:07:45;;;;;;;;;;;;;;;;;;4911857;29;19919;-79
2022/03/02 13:10:11;;;;;;;;;;;;;;;;;;4915199;29;19920;-79
2022/03/02 13:12:38;;;;;;;;;;;;;;;;;;4912465;29;19919;-78
2022/03/02 13:15:04;;;;;;;;;;;;;;;;;;4892833;29;19922;-78
2022/03/02 13:17:30;;;;;;;;;;;;;;;;;;4901391;29;19911;-80
2022/03/02 13:19:56;;;;;;;;;;;;;;;;;;4913042;29;19938;-79
2022/03/02 13:22:23;;;;;;;;;;;;;;;;;;4902486;29;20380;-79
2022/03/02 13:24:49;;;;;;;;;;;;;;;;;;4914989;29;19915;-79
2022/03/02 13:27:16;;;;;;;;;;;;;;;;;;4919592;29;19911;-79
2022/03/02 13:29:42;;;;;;;;;;;;;;;;;;4902967;29;19911;-79
2022/03/02 13:32:08;;;;;;;;;;;;;;;;;;4919838;29;19911;-79
2022/03/02 13:34:34;;;;;;;;;;;;;;;;;;4919741;29;19915;-79
2022/03/02 13:37:01;;;;;;;;;;;;;;;;;;4918884;29;20390;-79
2022/03/02 13:39:30;;;;;;;;;;;;;;;;;;4917739;29;19911;-79
2022/03/02 13:41:56;;;;;;;;;;;;;;;;;;4918652;29;19950;-80
2022/03/02 13:44:22;;;;;;;;;;;;;;;;;;4918915;29;19954;-80
2022/03/02 13:46:48;;;;;;;;;;;;;;;;;;4917996;29;19927;-80
2022/03/02 13:49:14;;;;;;;;;;;;;;;;;;4919624;29;19915;-81
2022/03/02 13:51:39;;;;;;;;;;;;;;;;;;4891349;29;19911;-80
2022/03/02 13:54:05;;;;;;;;;;;;;;;;;;4918109;29;19912;-80
2022/03/02 13:56:31;;;;;;;;;;;;;;;;;;4919275;29;19918;-79
2022/03/02 13:58:57;;;;;;;;;;;;;;;;;;4919310;29;20287;-79
2022/03/02 14:01:25;;;;;;;;;;;;;;;;;;4919318;29;19911;-79
2022/03/02 14:03:51;;;;;;;;;;;;;;;;;;4911315;29;20058;-79
2022/03/02 14:06:17;;;;;;;;;;;;;;;;;;4908845;29;20006;-79
2022/03/02 14:08:43;;;;;;;;;;;;;;;;;;4910815;29;20379;-80
2022/03/02 14:11:09;;;;;;;;;;;;;;;;;;4910076;29;19918;-80
2022/03/02 14:13:35;;;;;;;;;;;;;;;;;;4912094;29;19998;-79
2022/03/02 14:16:01;;;;;;;;;;;;;;;;;;4903633;29;20002;-79
2022/03/02 14:18:27;;;;;;;;;;;;;;;;;;4915209;29;19926;-80
2022/03/02 14:20:53;;;;;;;;;;;;;;;;;;4906157;29;19915;-79
2022/03/02 14:23:19;;;;;;;;;;;;;;;;;;4902454;29;20288;-80
2022/03/02 14:25:45;;;;;;;;;;;;;;;;;;4900045;29;20351;-79
2022/03/02 14:28:13;;;;;;;;;;;;;;;;;;4888691;29;19951;-80
2022/03/02 14:30:39;;;;;;;;;;;;;;;;;;4918847;29;19911;-80
2022/03/02 14:33:04;;;;;;;;;;;;;;;;;;4918844;29;19918;-80
2022/03/02 14:35:30;;;;;;;;;;;;;;;;;;4918671;29;19911;-80
2022/03/02 14:37:56;;;;;;;;;;;;;;;;;;4918022;29;19912;-80
2022/03/02 14:40:22;;;;;;;;;;;;;;;;;;4918259;29;20308;-80
2022/03/02 14:42:48;;;;;;;;;;;;;;;;;;4911475;29;19926;-79
2022/03/02 14:45:14;;;;;;;;;;;;;;;;;;4908304;29;19923;-79
2022/03/02 14:47:40;;;;;;;;;;;;;;;;;;4907301;29;19924;-78
2022/03/02 14:50:06;;;;;;;;;;;;;;;;;;4911439;29;19911;-79
2022/03/02 14:52:32;;;;;;;;;;;;;;;;;;4905430;29;20287;-78
2022/03/02 14:54:58;;;;;;;;;;;;;;;;;;4904184;29;19919;-79
2022/03/02 14:57:24;;;;;;;;;;;;;;;;;;4899274;29;20104;-79
2022/03/02 14:59:50;;;;;;;;;;;;;;;;;;4899470;29;19912;-79
2022/03/02 15:02:15;;;;;;;;;;;;;;;;;;4899984;29;20030;-79
2022/03/02 15:04:41;;;;;;;;;;;;;;;;;;4909559;29;20336;-79
2022/03/02 15:07:07;;;;;;;;;;;;;;;;;;4904876;29;20002;-79
2022/03/02 15:09:33;;;;;;;;;;;;;;;;;;4908359;29;19939;-80
2022/03/02 15:11:59;;;;;;;;;;;;;;;;;;4909131;29;19911;-80
2022/03/02 15:17:10;;;;;;;;;;;;;;;;;;4918120;29;19967;-79
2022/03/02 15:19:36;;;;;;;;;;;;;;;;;;4897695;29;20375;-79
2022/03/02 15:22:02;;;;;;;;;;;;;;;;;;4906278;29;19919;-78
2022/03/02 15:24:28;;;;;;;;;;;;;;;;;;4913310;29;19942;-80
2022/03/02 15:26:54;;;;;;;;;;;;;;;;;;4916434;29;20356;-80
2022/03/02 15:29:20;;;;;;;;;;;;;;;;;;4917926;29;20360;-82
2022/03/02 15:31:46;;;;;;;;;;;;;;;;;;4907604;29;19918;-83
2022/03/02 15:34:12;;;;;;;;;;;;;;;;;;4907253;29;19912;-80
2022/03/02 15:36:38;;;;;;;;;;;;;;;;;;4912340;29;19951;-80
2022/03/02 15:39:04;;;;;;;;;;;;;;;;;;4915509;29;20392;-80
2022/03/02 15:41:30;;;;;;;;;;;;;;;;;;4914674;29;20002;-82
2022/03/02 15:43:55;;;;;;;;;;;;;;;;;;4907271;29;19921;-78
2022/03/02 15:46:21;;;;;;;;;;;;;;;;;;4912525;29;19919;-79
2022/03/02 15:48:47;;;;;;;;;;;;;;;;;;4905562;29;19911;-79
2022/03/02 15:51:13;;;;;;;;;;;;;;;;;;4907598;29;19999;-80
2022/03/02 15:53:40;;;;;;;;;;;;;;;;;;4905395;29;19911;-80
2022/03/02 15:56:06;;;;;;;;;;;;;;;;;;4904827;29;19915;-80
2022/03/02 15:58:32;;;;;;;;;;;;;;;;;;4917119;29;19911;-79
2022/03/02 16:00:57;;;;;;;;;;;;;;;;;;4916445;29;20382;-80
2022/03/02 16:03:23;;;;;;;;;;;;;;;;;;4913124;29;19938;-80
2022/03/02 16:05:49;;;;;;;;;;;;;;;;;;4898744;29;19943;-80
2022/03/02 16:08:16;;;;;;;;;;;;;;;;;;4905437;29;20360;-80
2022/03/02 16:10:43;;;;;;;;;;;;;;;;;;4905332;29;19947;-83
2022/03/02 16:13:09;;;;;;;;;;;;;;;;;;4888466;29;20280;-80
2022/03/02 16:15:35;;;;;;;;;;;;;;;;;;4884994;29;19919;-78
2022/03/02 16:18:01;;;;;;;;;;;;;;;;;;4912630;29;19919;-79
2022/03/02 16:20:27;;;;;;;;;;;;;;;;;;4911192;29;20279;-79
2022/03/02 16:22:52;;;;;;;;;;;;;;;;;;4902448;29;19927;-79
2022/03/02 16:25:18;;;;;;;;;;;;;;;;;;4912028;29;19918;-79
2022/03/02 16:27:44;;;;;;;;;;;;;;;;;;4898673;29;19915;-79
2022/03/02 16:30:11;;;;;;;;;;;;;;;;;;4901619;29;19918;-78
2022/03/02 16:32:39;;;;;;;;;;;;;;;;;;4917132;29;19918;-78
2022/03/02 16:35:04;;;;;;;;;;;;;;;;;;4916270;29;20356;-78
2022/03/02 16:37:31;;;;;;;;;;;;;;;;;;4895756;29;19918;-78
2022/03/02 16:39:57;;;;;;;;;;;;;;;;;;4880958;29;20448;-78